Time;durP1;ratioP1;P1;durP2;ratioP2;P2;SDS_P1;SDS_P2;PMS_P1;PMS_P2;Temp;Humidity;BMP_temperature;BMP_pressure;BME280_temperature;BME280_humidity;BME280_pressure;Samples;Min_cycle;Max_cycle;Signal;HPM_P1;HPM_P2
2022/05/14 00:00:38;;;;;;;20.15;5.50;;;12.80;99.90;;;;;;5022111;28;20136;-68
2022/05/14 00:03:04;;;;;;;18.70;5.05;;;12.80;99.90;;;;;;5023251;28;20446;-68
2022/05/14 00:05:30;;;;;;;16.48;5.78;;;12.80;99.90;;;;;;5024915;28;20050;-68
2022/05/14 00:07:56;;;;;;;18.65;4.90;;;12.80;99.90;;;;;;5023270;28;20427;-68
2022/05/14 00:10:27;;;;;;;16.88;5.72;;;12.80;99.90;;;;;;5028008;28;20057;-68
2022/05/14 00:13:05;;;;;;;19.08;5.35;;;12.70;99.90;;;;;;5027037;28;20049;-69
2022/05/14 00:15:36;;;;;;;15.00;4.22;;;12.70;99.90;;;;;;5024733;28;20081;-68
2022/05/14 00:18:02;;;;;;;13.55;5.30;;;12.70;99.90;;;;;;5026361;28;20045;-69
2022/05/14 00:20:28;;;;;;;17.05;4.85;;;12.70;99.90;;;;;;5027459;28;20484;-68
2022/05/14 00:22:54;;;;;;;15.30;4.75;;;12.60;99.90;;;;;;5025930;28;20044;-68
2022/05/14 00:25:24;;;;;;;20.60;5.28;;;12.60;99.90;;;;;;5026593;28;20057;-68
2022/05/14 00:27:50;;;;;;;20.30;5.43;;;12.60;99.90;;;;;;5025779;28;20104;-68
2022/05/14 00:30:17;;;;;;;15.23;4.63;;;12.60;99.90;;;;;;5028070;28;20476;-69
2022/05/14 00:32:43;;;;;;;13.75;4.38;;;12.60;99.90;;;;;;5025979;28;20125;-68
2022/05/14 00:35:10;;;;;;;15.00;4.60;;;12.60;99.90;;;;;;5026343;28;20140;-68
2022/05/14 00:37:36;;;;;;;18.85;5.05;;;12.60;99.90;;;;;;5026550;28;20033;-68
2022/05/14 00:40:09;;;;;;;15.75;5.68;;;12.70;99.90;;;;;;5026428;28;20038;-69
2022/05/14 00:42:38;;;;;;;18.40;4.90;;;12.70;99.90;;;;;;5024872;28;20057;-68
2022/05/14 00:45:07;;;;;;;20.08;4.72;;;12.70;99.90;;;;;;5027659;28;20558;-68
2022/05/14 00:47:36;;;;;;;17.00;4.65;;;12.60;99.90;;;;;;5026409;28;20049;-69
2022/05/14 00:50:36;;;;;;;14.70;4.70;;;12.70;99.90;;;;;;5024061;28;20507;-69
2022/05/14 00:53:20;;;;;;;22.33;5.20;;;12.70;99.90;;;;;;5027562;28;20564;-69
2022/05/14 00:55:48;;;;;;;17.20;5.10;;;12.60;99.90;;;;;;5027089;28;20048;-69
2022/05/14 00:58:23;;;;;;;19.33;5.32;;;12.60;99.90;;;;;;5024586;28;20057;-69
2022/05/14 01:00:48;;;;;;;20.98;5.53;;;12.60;99.90;;;;;;5024854;28;20438;-69
2022/05/14 01:03:14;;;;;;;20.55;5.53;;;12.60;99.90;;;;;;5025663;28;20049;-69
2022/05/14 01:05:39;;;;;;;16.33;5.03;;;12.60;99.90;;;;;;5027345;28;20488;-69
2022/05/14 01:08:05;;;;;;;16.30;5.03;;;12.60;99.90;;;;;;5027257;28;20049;-69
2022/05/14 01:10:38;;;;;;;15.77;5.60;;;12.60;99.90;;;;;;5024617;28;20404;-69
2022/05/14 01:13:04;;;;;;;24.52;7.28;;;12.60;99.90;;;;;;5025673;28;20095;-68
2022/05/14 01:15:48;;;;;;;16.23;5.32;;;12.60;99.90;;;;;;5026260;28;20057;-68
2022/05/14 01:18:14;;;;;;;19.92;5.88;;;12.60;99.90;;;;;;5022529;28;20491;-69
2022/05/14 01:20:40;;;;;;;27.30;6.50;;;12.60;99.90;;;;;;5026828;28;20053;-68
2022/05/14 01:23:21;;;;;;;18.73;5.80;;;12.60;99.90;;;;;;5026078;28;20072;-68
2022/05/14 01:26:29;;;;;;;20.20;5.55;;;12.60;99.90;;;;;;5024996;28;20063;-69
2022/05/14 01:29:08;;;;;;;16.63;5.72;;;12.70;99.90;;;;;;5025667;28;20463;-68
2022/05/14 01:31:35;;;;;;;22.52;6.47;;;12.70;99.90;;;;;;5022375;28;20084;-68
2022/05/14 01:34:05;;;;;;;23.23;6.15;;;12.70;99.90;;;;;;5026756;28;20037;-69
2022/05/14 01:36:32;;;;;;;23.20;8.27;;;12.60;99.90;;;;;;5025800;28;20132;-69
2022/05/14 01:38:58;;;;;;;29.13;6.82;;;12.60;99.90;;;;;;5026162;28;20079;-68
2022/05/14 01:41:24;;;;;;;23.27;5.47;;;12.60;99.90;;;;;;5026725;28;20400;-68
2022/05/14 01:43:49;;;;;;;28.10;6.25;;;12.60;99.90;;;;;;5026621;28;20048;-68
2022/05/14 01:46:15;;;;;;;24.35;6.30;;;12.60;99.90;;;;;;5026023;28;20091;-69
2022/05/14 01:48:41;;;;;;;26.67;6.28;;;12.50;99.90;;;;;;5025349;28;20083;-68
2022/05/14 01:51:07;;;;;;;24.60;6.10;;;12.40;99.90;;;;;;5027043;28;20401;-68
2022/05/14 01:53:32;;;;;;;19.55;5.78;;;12.40;99.90;;;;;;5025153;28;20037;-69
2022/05/14 01:55:58;;;;;;;17.45;5.93;;;12.40;99.90;;;;;;5025490;28;20495;-69
2022/05/14 01:58:37;;;;;;;22.05;7.05;;;12.40;99.90;;;;;;5026656;28;20053;-68
2022/05/14 02:01:19;;;;;;;24.58;5.82;;;12.40;99.90;;;;;;5022996;28;20057;-68
2022/05/14 02:03:48;;;;;;;23.35;7.72;;;12.30;99.90;;;;;;5025786;28;20055;-68
2022/05/14 02:06:14;;;;;;;20.98;7.85;;;12.30;99.90;;;;;;5024385;28;20072;-68
2022/05/14 02:08:40;;;;;;;18.73;6.30;;;12.20;99.90;;;;;;5024806;28;20136;-68
2022/05/14 02:11:08;;;;;;;28.00;6.80;;;12.20;99.90;;;;;;5025246;28;20136;-68
2022/05/14 02:13:34;;;;;;;21.73;6.30;;;12.20;99.90;;;;;;5021339;28;20375;-67
2022/05/14 02:16:00;;;;;;;28.45;8.35;;;12.10;99.90;;;;;;5026622;28;20069;-68
2022/05/14 02:18:26;;;;;;;25.25;7.15;;;12.10;99.90;;;;;;5026682;28;20123;-68
2022/05/14 02:20:52;;;;;;;21.75;6.53;;;12.10;99.90;;;;;;5024293;28;20053;-68
2022/05/14 02:23:18;;;;;;;30.00;7.43;;;12.00;99.90;;;;;;5024420;28;20622;-67
2022/05/14 02:25:43;;;;;;;26.42;6.97;;;12.00;99.90;;;;;;5025803;28;20049;-68
2022/05/14 02:28:13;;;;;;;22.55;7.03;;;12.00;99.90;;;;;;5025306;28;20037;-68
2022/05/14 02:30:39;;;;;;;24.67;6.80;;;12.80;99.90;;;;;;5025372;28;20057;-67
2022/05/14 02:33:05;;;;;;;21.52;6.63;;;12.00;99.90;;;;;;5024774;28;20129;-68
2022/05/14 02:35:30;;;;;;;25.25;6.55;;;11.80;99.90;;;;;;5025303;28;20478;-67
2022/05/14 02:37:56;;;;;;;27.27;8.35;;;11.80;99.90;;;;;;5024343;28;20665;-67
2022/05/14 02:40:21;;;;;;;26.00;6.72;;;11.80;99.90;;;;;;5024178;28;20555;-68
2022/05/14 02:42:47;;;;;;;23.58;7.80;;;11.70;99.90;;;;;;5023227;28;20131;-68
2022/05/14 02:45:14;;;;;;;21.88;6.78;;;11.70;99.90;;;;;;5024129;28;20053;-68
2022/05/14 02:47:40;;;;;;;26.98;8.10;;;11.70;99.90;;;;;;5025364;28;20488;-68
2022/05/14 02:50:08;;;;;;;30.08;7.22;;;11.70;99.90;;;;;;5024711;28;20500;-68
2022/05/14 02:52:35;;;;;;;34.92;8.43;;;11.70;99.90;;;;;;5017631;28;20080;-68
2022/05/14 02:55:01;;;;;;;27.85;7.78;;;11.70;99.90;;;;;;5025344;28;20107;-68
2022/05/14 02:57:26;;;;;;;28.90;8.07;;;11.70;99.90;;;;;;5023841;28;20061;-68
2022/05/14 02:59:52;;;;;;;32.53;8.10;;;11.70;99.90;;;;;;5025103;28;20511;-68
2022/05/14 03:02:18;;;;;;;25.98;7.82;;;11.70;99.90;;;;;;5025476;28;20646;-68
2022/05/14 03:04:44;;;;;;;31.02;6.75;;;11.70;99.90;;;;;;5024281;28;20042;-68
2022/05/14 03:07:11;;;;;;;23.27;7.75;;;11.60;99.90;;;;;;5025073;28;20048;-68
2022/05/14 03:09:38;;;;;;;21.85;6.63;;;11.60;99.90;;;;;;5024586;28;20175;-68
2022/05/14 03:12:06;;;;;;;23.23;6.97;;;11.60;99.90;;;;;;5023661;28;20045;-68
2022/05/14 03:14:31;;;;;;;29.50;7.47;;;11.60;99.90;;;;;;5024100;28;20416;-68
2022/05/14 03:16:57;;;;;;;26.45;7.63;;;11.50;99.90;;;;;;5023081;28;20051;-68
2022/05/14 03:19:22;;;;;;;29.70;7.78;;;11.50;99.90;;;;;;5023876;28;20061;-68
2022/05/14 03:21:48;;;;;;;25.60;7.63;;;11.50;99.90;;;;;;5023314;28;20049;-68
2022/05/14 03:24:14;;;;;;;24.65;6.88;;;11.40;99.90;;;;;;5024029;28;20089;-68
2022/05/14 03:26:41;;;;;;;23.63;6.88;;;11.40;99.90;;;;;;5024807;28;20044;-68
2022/05/14 03:29:08;;;;;;;21.65;6.75;;;11.30;99.90;;;;;;5025023;28;20068;-68
2022/05/14 03:31:34;;;;;;;20.48;6.80;;;11.30;99.90;;;;;;5023389;28;20391;-68
2022/05/14 03:34:01;;;;;;;25.10;7.30;;;11.40;99.90;;;;;;5023664;28;20510;-68
2022/05/14 03:36:27;;;;;;;24.95;7.85;;;11.40;99.90;;;;;;5025062;28;20416;-67
2022/05/14 03:38:53;;;;;;;25.38;6.88;;;11.40;99.90;;;;;;5023794;28;20041;-68
2022/05/14 03:41:20;;;;;;;28.33;8.00;;;11.30;99.90;;;;;;5023105;28;20056;-67
2022/05/14 03:43:47;;;;;;;25.65;7.13;;;11.30;99.90;;;;;;5023450;28;20041;-67
2022/05/14 03:46:13;;;;;;;28.38;7.40;;;11.20;99.90;;;;;;5023719;28;20484;-68
2022/05/14 03:48:38;;;;;;;31.20;7.05;;;11.10;99.90;;;;;;5023201;28;20054;-68
2022/05/14 03:51:05;;;;;;;30.65;8.20;;;11.10;99.90;;;;;;5023347;28;20038;-68
2022/05/14 03:53:31;;;;;;;26.52;6.90;;;11.10;99.90;;;;;;5022210;28;20075;-68
2022/05/14 03:55:57;;;;;;;26.73;7.70;;;11.10;99.90;;;;;;5024760;28;20050;-68
2022/05/14 03:58:23;;;;;;;30.33;8.07;;;11.20;99.90;;;;;;5024593;28;20080;-67
2022/05/14 04:00:49;;;;;;;26.92;7.38;;;11.20;99.90;;;;;;5022678;28;20046;-68
2022/05/14 04:03:15;;;;;;;25.50;7.53;;;11.20;99.90;;;;;;5024415;28;20072;-68
2022/05/14 04:05:41;;;;;;;29.88;8.05;;;11.10;99.90;;;;;;5024085;28;20049;-68
2022/05/14 04:08:06;;;;;;;23.90;7.55;;;11.10;99.90;;;;;;5022341;28;20530;-68
2022/05/14 04:10:32;;;;;;;28.50;6.32;;;11.10;99.90;;;;;;5024766;28;20053;-68
2022/05/14 04:12:59;;;;;;;37.45;8.35;;;11.10;99.90;;;;;;5022821;28;20120;-67
2022/05/14 04:15:25;;;;;;;25.55;7.20;;;11.10;99.90;;;;;;5024337;28;20053;-68
2022/05/14 04:17:52;;;;;;;34.45;8.18;;;11.00;99.90;;;;;;5023275;28;20380;-68
2022/05/14 04:20:17;;;;;;;20.52;6.43;;;10.90;99.90;;;;;;5020547;28;20162;-68
2022/05/14 04:22:43;;;;;;;19.95;6.20;;;10.90;99.90;;;;;;5023739;28;20176;-68
2022/05/14 04:25:11;;;;;;;27.25;6.40;;;10.80;99.90;;;;;;5023610;28;20048;-68
2022/05/14 04:27:37;;;;;;;31.52;6.97;;;10.90;99.90;;;;;;5024394;28;20042;-68
2022/05/14 04:30:03;;;;;;;24.83;7.20;;;10.80;99.90;;;;;;5023041;28;20412;-68
2022/05/14 04:32:29;;;;;;;22.88;7.30;;;10.70;99.90;;;;;;5024821;28;20417;-67
2022/05/14 04:34:56;;;;;;;23.15;7.63;;;10.70;99.90;;;;;;5022867;28;20136;-68
2022/05/14 04:37:21;;;;;;;24.60;6.82;;;10.70;99.90;;;;;;5022803;28;20080;-67
2022/05/14 04:39:47;;;;;;;22.20;6.55;;;10.70;99.90;;;;;;5022468;28;20500;-68
2022/05/14 04:42:12;;;;;;;25.38;6.60;;;10.80;99.90;;;;;;5021840;28;20399;-67
2022/05/14 04:44:38;;;;;;;25.13;7.35;;;10.80;99.90;;;;;;5024479;28;20196;-68
2022/05/14 04:47:04;;;;;;;25.83;8.10;;;10.80;99.90;;;;;;5024713;28;20574;-68
2022/05/14 04:49:30;;;;;;;25.25;7.75;;;10.80;99.90;;;;;;5022753;28;20054;-67
2022/05/14 04:51:56;;;;;;;21.88;6.72;;;12.20;99.90;;;;;;5023981;28;20404;-68
2022/05/14 04:54:22;;;;;;;21.58;7.57;;;11.00;99.90;;;;;;5025073;28;20274;-68
2022/05/14 04:56:48;;;;;;;30.30;8.73;;;11.00;99.90;;;;;;5025447;28;20041;-68
2022/05/14 04:59:14;;;;;;;23.23;7.13;;;11.00;99.90;;;;;;5026666;28;20126;-68
2022/05/14 05:03:16;;;;;;;21.90;7.57;;;11.00;99.90;;;;;;5027566;28;20049;-68
2022/05/14 05:04:31;;;;;;;24.48;7.28;;;11.10;99.90;;;;;;5026410;28;20081;-67
2022/05/14 05:06:57;;;;;;;32.00;7.80;;;11.10;99.90;;;;;;5027926;28;20041;-68
2022/05/14 05:09:23;;;;;;;20.83;6.55;;;11.10;99.90;;;;;;5025749;28;20041;-68
2022/05/14 05:11:50;;;;;;;19.98;6.68;;;11.20;99.90;;;;;;5026997;28;20049;-68
2022/05/14 05:14:16;;;;;;;30.65;8.98;;;11.30;99.90;;;;;;5027362;28;20049;-68
2022/05/14 05:16:41;;;;;;;34.55;7.55;;;11.40;99.90;;;;;;5025424;28;20055;-68
2022/05/14 05:19:07;;;;;;;22.38;7.28;;;11.50;99.90;;;;;;5027330;28;20399;-68
2022/05/14 05:21:33;;;;;;;23.77;7.40;;;11.60;99.90;;;;;;5026003;28;20042;-68
2022/05/14 05:23:59;;;;;;;27.88;8.07;;;11.60;99.90;;;;;;5024466;28;20058;-67
2022/05/14 05:26:24;;;;;;;31.23;8.30;;;11.60;99.90;;;;;;5027377;28;20041;-67
2022/05/14 05:28:50;;;;;;;31.48;8.35;;;11.60;99.90;;;;;;5025626;28;20652;-68
2022/05/14 05:31:17;;;;;;;24.13;7.10;;;11.70;99.90;;;;;;5024968;28;20041;-68
2022/05/14 05:33:43;;;;;;;24.30;7.30;;;11.70;99.90;;;;;;5026728;28;20053;-68
2022/05/14 05:36:09;;;;;;;26.45;7.45;;;11.80;99.90;;;;;;5026940;28;20119;-68
2022/05/14 05:38:34;;;;;;;38.13;8.68;;;11.80;99.90;;;;;;5024932;28;20487;-68
2022/05/14 05:41:00;;;;;;;25.92;7.15;;;11.80;99.90;;;;;;5026409;28;20041;-68
2022/05/14 05:43:26;;;;;;;31.00;9.13;;;11.80;99.90;;;;;;5027118;28;20045;-68
2022/05/14 05:45:52;;;;;;;22.00;7.72;;;11.90;99.90;;;;;;5025550;28;20132;-69
2022/05/14 05:48:19;;;;;;;29.40;8.55;;;12.00;99.90;;;;;;5024758;28;20462;-69
2022/05/14 05:50:48;;;;;;;24.50;7.93;;;12.10;99.90;;;;;;5026541;28;20076;-68
2022/05/14 05:53:14;;;;;;;28.63;7.07;;;12.10;99.90;;;;;;5024377;28;20561;-69
2022/05/14 05:58:24;;;;;;;28.25;6.85;;;12.30;99.90;;;;;;5025844;28;20502;-68
2022/05/14 06:00:50;;;;;;;21.05;7.35;;;12.50;99.90;;;;;;5026165;28;20049;-68
2022/05/14 06:03:15;;;;;;;26.75;7.25;;;12.50;99.90;;;;;;5024079;28;20080;-68
2022/05/14 06:05:41;;;;;;;21.50;6.97;;;12.70;99.90;;;;;;5024432;28;20069;-68
2022/05/14 06:08:12;;;;;;;26.90;6.82;;;12.70;99.90;;;;;;5026457;28;20041;-68
2022/05/14 06:10:38;;;;;;;22.17;6.57;;;12.90;99.90;;;;;;5021937;28;20140;-68
2022/05/14 06:13:05;;;;;;;17.75;5.47;;;12.90;99.90;;;;;;5023646;28;20049;-68
2022/05/14 06:15:31;;;;;;;26.23;6.90;;;13.00;99.90;;;;;;5026428;28;20061;-68
2022/05/14 06:18:04;;;;;;;20.48;7.05;;;13.00;99.90;;;;;;5024726;28;20049;-68
2022/05/14 06:20:30;;;;;;;19.48;5.97;;;13.10;99.90;;;;;;5024898;28;20156;-68
2022/05/14 06:22:55;;;;;;;26.48;6.10;;;13.10;99.90;;;;;;5025810;28;20527;-68
2022/05/14 06:25:21;;;;;;;19.65;5.85;;;13.20;99.90;;;;;;5025876;28;20082;-68
2022/05/14 06:27:46;;;;;;;20.42;6.53;;;13.20;99.90;;;;;;5024738;28;20045;-68
2022/05/14 06:30:12;;;;;;;19.92;6.05;;;13.30;99.90;;;;;;5025906;28;20061;-69
2022/05/14 06:32:38;;;;;;;19.40;4.85;;;13.30;99.90;;;;;;5025765;28;20045;-68
2022/05/14 06:35:09;;;;;;;24.80;6.25;;;13.30;99.90;;;;;;5025853;28;20049;-68
2022/05/14 06:37:35;;;;;;;15.88;5.25;;;13.30;99.90;;;;;;5023422;28;20034;-68
2022/05/14 06:40:01;;;;;;;24.33;5.50;;;13.40;99.90;;;;;;5024185;28;20103;-69
2022/05/14 06:42:27;;;;;;;20.77;5.75;;;13.40;99.90;;;;;;5024240;28;20492;-68
2022/05/14 06:44:54;;;;;;;20.27;5.20;;;13.50;99.90;;;;;;5025274;28;20045;-68
2022/05/14 06:47:20;;;;;;;17.35;5.15;;;13.50;99.90;;;;;;5024078;28;20056;-69
2022/05/14 06:49:46;;;;;;;21.55;5.55;;;13.50;99.90;;;;;;5023392;28;20085;-69
2022/05/14 06:52:16;;;;;;;20.50;5.47;;;13.60;99.90;;;;;;5023905;28;20085;-69
2022/05/14 06:54:45;;;;;;;17.38;5.13;;;13.60;99.90;;;;;;5024645;28;20076;-69
2022/05/14 06:57:12;;;;;;;17.60;4.95;;;13.60;99.90;;;;;;5023707;28;20075;-68
2022/05/14 06:59:38;;;;;;;22.33;5.00;;;13.70;99.90;;;;;;5020969;28;20095;-68
2022/05/14 07:02:05;;;;;;;19.75;4.95;;;13.70;99.90;;;;;;5023303;28;20458;-69
2022/05/14 07:07:17;;;;;;;18.33;4.30;;;13.80;99.90;;;;;;5024067;28;20053;-68
2022/05/14 07:09:43;;;;;;;22.77;5.47;;;13.90;99.90;;;;;;5024675;28;20099;-68
2022/05/14 07:12:12;;;;;;;22.60;5.63;;;14.00;99.90;;;;;;5022841;28;20045;-68
2022/05/14 07:14:40;;;;;;;20.27;4.35;;;14.10;99.90;;;;;;5024908;28;20049;-69
2022/05/14 07:17:06;;;;;;;13.30;4.32;;;14.10;99.90;;;;;;5021789;28;20044;-68
2022/05/14 07:19:32;;;;;;;18.77;4.38;;;14.20;99.90;;;;;;5027691;28;20095;-68
2022/05/14 07:21:57;;;;;;;13.73;4.70;;;14.20;99.90;;;;;;5025980;28;20045;-68
2022/05/14 07:24:28;;;;;;;15.20;4.68;;;14.30;99.90;;;;;;5022825;28;20774;-68
2022/05/14 07:26:57;;;;;;;16.65;4.57;;;14.40;99.90;;;;;;5023710;28;20236;-68
2022/05/14 07:29:25;;;;;;;16.98;5.30;;;14.50;99.90;;;;;;5022264;28;20087;-68
2022/05/14 07:31:52;;;;;;;14.95;4.18;;;14.50;99.90;;;;;;5023097;28;20258;-68
2022/05/14 07:34:18;;;;;;;17.02;3.90;;;14.60;99.90;;;;;;5022784;28;20056;-68
2022/05/14 07:36:54;;;;;;;24.13;6.18;;;14.70;99.90;;;;;;5023088;28;20408;-67
2022/05/14 07:39:23;;;;;;;13.80;4.25;;;14.80;99.90;;;;;;5022327;28;20043;-69
2022/05/14 07:41:53;;;;;;;20.17;5.00;;;14.80;99.90;;;;;;5023284;28;20142;-71
2022/05/14 07:44:21;;;;;;;14.68;4.53;;;14.80;99.90;;;;;;5023996;28;20045;-70
2022/05/14 07:46:49;;;;;;;13.27;4.10;;;14.90;99.90;;;;;;5023723;28;20139;-71
2022/05/14 07:49:17;;;;;;;13.70;4.78;;;14.90;99.90;;;;;;5019702;28;20049;-70
2022/05/14 07:51:43;;;;;;;13.68;3.65;;;15.00;99.90;;;;;;5022532;28;20053;-69
2022/05/14 07:54:09;;;;;;;16.27;4.95;;;15.10;99.90;;;;;;5023328;28;20069;-71
2022/05/14 07:56:39;;;;;;;10.73;3.97;;;15.10;99.90;;;;;;5022286;28;20108;-69
2022/05/14 07:59:05;;;;;;;12.73;4.03;;;15.20;99.90;;;;;;5015279;28;20524;-69
2022/05/14 08:01:32;;;;;;;14.55;3.92;;;15.20;99.90;;;;;;5014235;28;20103;-70
2022/05/14 08:03:57;;;;;;;9.82;3.83;;;15.30;99.90;;;;;;5023422;28;20492;-70
2022/05/14 08:06:23;;;;;;;16.33;4.13;;;15.40;99.90;;;;;;5025268;28;20104;-69
2022/05/14 08:08:51;;;;;;;16.17;4.55;;;15.40;99.90;;;;;;5025045;28;20049;-71
2022/05/14 08:11:17;;;;;;;19.45;4.60;;;15.60;99.90;;;;;;5024424;28;20041;-71
2022/05/14 08:13:43;;;;;;;14.35;4.15;;;15.70;99.90;;;;;;5023431;28;20049;-71
2022/05/14 08:16:08;;;;;;;12.15;4.10;;;15.70;99.90;;;;;;5024371;28;20408;-71
2022/05/14 08:18:34;;;;;;;22.15;5.13;;;15.80;99.90;;;;;;5025883;28;20095;-71
2022/05/14 08:26:29;;;;;;;15.90;4.13;;;16.00;99.90;;;;;;5028280;28;20080;-70
2022/05/14 08:28:54;;;;;;;15.20;4.00;;;16.00;99.90;;;;;;5026654;28;20435;-71
2022/05/14 08:31:20;;;;;;;21.52;4.43;;;15.90;99.90;;;;;;5028059;28;20038;-71
2022/05/14 08:33:45;;;;;;;16.73;4.47;;;15.90;99.90;;;;;;5027460;28;20045;-71
2022/05/14 08:36:11;;;;;;;14.48;4.38;;;16.00;99.90;;;;;;5026700;28;20049;-71
2022/05/14 08:38:37;;;;;;;17.73;4.55;;;16.00;99.90;;;;;;5026156;28;20050;-71
2022/05/14 08:41:03;;;;;;;15.35;4.40;;;16.10;99.90;;;;;;5025082;28;20141;-70
2022/05/14 08:43:47;;;;;;;23.02;4.47;;;16.20;99.90;;;;;;5024540;28;20052;-70
2022/05/14 08:46:18;;;;;;;22.50;5.18;;;16.30;99.90;;;;;;5028037;28;20072;-71
2022/05/14 08:48:50;;;;;;;17.27;4.30;;;16.40;99.90;;;;;;5024619;28;20053;-71
2022/05/14 08:51:19;;;;;;;20.73;5.23;;;16.50;99.90;;;;;;5027047;28;20128;-71
2022/05/14 08:53:47;;;;;;;17.13;4.22;;;16.60;99.90;;;;;;5026871;28;20048;-70
2022/05/14 08:56:22;;;;;;;16.50;4.22;;;16.60;99.90;;;;;;5024324;28;20065;-71
2022/05/14 08:59:09;;;;;;;18.42;4.93;;;16.70;99.90;;;;;;5020454;28;20065;-72
2022/05/14 09:01:39;;;;;;;16.60;4.25;;;16.70;99.90;;;;;;5026057;28;20049;-71
2022/05/14 09:04:06;;;;;;;16.50;5.03;;;16.80;99.90;;;;;;5018796;28;20049;-72
2022/05/14 09:06:32;;;;;;;19.85;4.78;;;16.80;99.90;;;;;;5023969;28;20064;-72
2022/05/14 09:08:58;;;;;;;18.13;5.30;;;16.80;99.90;;;;;;5026038;28;20045;-73
2022/05/14 09:11:36;;;;;;;18.67;4.70;;;16.70;99.90;;;;;;5026321;28;20068;-73
2022/05/14 09:14:06;;;;;;;15.68;4.65;;;16.70;99.90;;;;;;5025127;28;20117;-72
2022/05/14 09:16:36;;;;;;;15.65;4.85;;;16.70;99.90;;;;;;5026771;28;20049;-73
2022/05/14 09:19:16;;;;;;;13.27;4.72;;;16.90;99.90;;;;;;5025976;28;20044;-72
2022/05/14 09:21:54;;;;;;;12.52;3.92;;;16.90;99.90;;;;;;5025279;28;20535;-73
2022/05/14 09:24:29;;;;;;;14.82;4.80;;;16.90;99.90;;;;;;5026389;28;20128;-73
2022/05/14 09:27:27;;;;;;;17.48;4.53;;;16.90;99.90;;;;;;5024156;28;20522;-72
2022/05/14 09:29:55;;;;;;;20.00;4.78;;;16.80;99.90;;;;;;5024503;28;20519;-71
2022/05/14 09:32:20;;;;;;;11.85;3.38;;;16.70;99.90;;;;;;5025208;28;20049;-72
2022/05/14 09:34:47;;;;;;;17.50;4.75;;;16.70;99.90;;;;;;5025363;28;20667;-72
2022/05/14 09:37:19;;;;;;;19.45;5.05;;;16.80;99.90;;;;;;5025105;28;20049;-72
2022/05/14 09:39:57;;;;;;;18.10;4.43;;;16.90;99.90;;;;;;5025458;28;20056;-72
2022/05/14 09:42:37;;;;;;;17.00;4.68;;;17.00;99.90;;;;;;5018777;28;20045;-72
2022/05/14 09:45:16;;;;;;;29.35;5.20;;;16.90;99.90;;;;;;5017526;28;20049;-75
2022/05/14 09:47:42;;;;;;;20.50;4.07;;;16.80;99.90;;;;;;5024128;28;20079;-75
2022/05/14 09:50:36;;;;;;;14.73;4.22;;;16.80;99.90;;;;;;5018302;28;20069;-75
2022/05/14 09:53:05;;;;;;;20.92;5.22;;;16.90;99.90;;;;;;5020122;28;20500;-72
2022/05/14 09:56:02;;;;;;;14.38;4.32;;;17.30;99.90;;;;;;5019730;28;20073;-73
2022/05/14 09:58:30;;;;;;;23.75;5.32;;;17.60;99.90;;;;;;5022479;28;20135;-74
2022/05/14 10:01:08;;;;;;;15.65;4.38;;;17.70;99.90;;;;;;5023482;28;20087;-74
2022/05/14 10:04:01;;;;;;;15.52;5.55;;;17.80;99.90;;;;;;5024309;28;20180;-73
2022/05/14 10:06:47;;;;;;;15.48;4.53;;;18.00;99.90;;;;;;5022312;28;20041;-74
2022/05/14 10:09:37;;;;;;;20.88;4.80;;;17.90;99.90;;;;;;5015580;28;20041;-73
2022/05/14 10:12:08;;;;;;;15.25;4.05;;;17.70;99.90;;;;;;5024264;28;20076;-73
2022/05/14 10:15:12;;;;;;;17.83;4.80;;;17.60;99.90;;;;;;5025831;28;20049;-73
2022/05/14 10:18:11;;;;;;;14.50;4.40;;;17.70;99.90;;;;;;5023470;28;20053;-72
2022/05/14 10:20:54;;;;;;;20.23;5.05;;;17.90;99.90;;;;;;5006545;28;20061;-72
2022/05/14 10:27:18;;;;;;;16.25;5.20;;;18.00;99.90;;;;;;5026052;28;20049;-72
2022/05/14 10:30:08;;;;;;;13.00;4.18;;;18.00;99.90;;;;;;5006863;28;20140;-73
2022/05/14 10:32:34;;;;;;;16.63;4.85;;;18.20;99.90;;;;;;5024194;28;20060;-73
2022/05/14 10:35:19;;;;;;;14.95;4.72;;;18.50;99.90;;;;;;5024472;28;20386;-72
2022/05/14 10:37:54;;;;;;;12.25;4.72;;;18.70;99.90;;;;;;5024977;28;20046;-73
2022/05/14 10:40:40;;;;;;;19.63;4.68;;;18.80;99.90;;;;;;5022319;28;20038;-72
2022/05/14 10:43:34;;;;;;;19.73;5.18;;;18.90;99.90;;;;;;5022841;28;20060;-72
2022/05/14 10:46:06;;;;;;;18.63;4.55;;;19.10;99.90;;;;;;5026108;28;20148;-73
2022/05/14 10:48:46;;;;;;;15.80;4.70;;;19.10;99.90;;;;;;5018371;28;20050;-72
2022/05/14 10:51:33;;;;;;;15.60;4.35;;;19.00;99.90;;;;;;5016962;28;20171;-72
2022/05/14 10:54:00;;;;;;;18.40;4.55;;;19.00;99.90;;;;;;5021841;28;20061;-72
2022/05/14 10:56:34;;;;;;;21.50;5.10;;;19.10;99.90;;;;;;5022234;28;20057;-72
2022/05/14 10:59:07;;;;;;;16.98;4.90;;;19.00;99.90;;;;;;5022564;28;20136;-73
2022/05/14 11:01:43;;;;;;;17.25;5.25;;;19.20;99.90;;;;;;5023785;28;20057;-72
2022/05/14 11:04:18;;;;;;;17.23;4.15;;;19.00;99.90;;;;;;5027323;28;20478;-71
2022/05/14 11:07:09;;;;;;;13.23;4.43;;;18.70;99.90;;;;;;5020537;28;20037;-72
2022/05/14 11:09:42;;;;;;;19.70;4.90;;;18.60;99.90;;;;;;5022053;28;20053;-71
2022/05/14 11:12:10;;;;;;;17.60;4.93;;;18.70;99.90;;;;;;5024210;28;20450;-71
2022/05/14 11:14:57;;;;;;;20.85;5.55;;;18.60;99.90;;;;;;5024467;28;20554;-72
2022/05/14 11:17:28;;;;;;;13.80;4.65;;;18.70;99.90;;;;;;5022425;28;20045;-71
2022/05/14 11:20:03;;;;;;;17.25;4.72;;;18.90;99.90;;;;;;5022757;28;20053;-72
2022/05/14 11:22:41;;;;;;;23.63;5.22;;;19.10;99.90;;;;;;5022493;28;20056;-71
2022/05/14 11:25:24;;;;;;;15.85;4.75;;;19.30;99.90;;;;;;5023944;28;20050;-72
2022/05/14 11:28:17;;;;;;;20.23;5.95;;;19.30;99.90;;;;;;5022087;28;20069;-72
2022/05/14 11:30:45;;;;;;;27.38;5.97;;;19.50;99.90;;;;;;5019024;28;20107;-72
2022/05/14 11:33:19;;;;;;;22.70;5.88;;;19.60;99.90;;;;;;5020103;28;20048;-72
2022/05/14 11:35:46;;;;;;;17.38;5.38;;;19.80;99.90;;;;;;5022476;28;20092;-73
2022/05/14 11:38:34;;;;;;;15.13;4.55;;;19.90;99.90;;;;;;5023859;28;20060;-73
2022/05/14 11:41:07;;;;;;;17.70;5.15;;;19.80;99.90;;;;;;5015984;28;20059;-73
2022/05/14 11:43:36;;;;;;;13.68;4.63;;;19.60;99.90;;;;;;5023459;28;20100;-73
2022/05/14 11:46:33;;;;;;;19.20;4.90;;;19.50;99.90;;;;;;5022323;28;20059;-73
2022/05/14 11:49:02;;;;;;;19.63;5.15;;;19.30;99.90;;;;;;5017769;28;20140;-73
2022/05/14 11:51:33;;;;;;;21.45;5.40;;;19.40;99.90;;;;;;5016340;28;20042;-73
2022/05/14 11:54:24;;;;;;;17.27;5.05;;;19.40;99.90;;;;;;5021286;28;20061;-73
2022/05/14 11:57:24;;;;;;;14.40;4.85;;;19.50;99.90;;;;;;5022963;28;20049;-73
2022/05/14 11:59:58;;;;;;;20.15;5.85;;;19.50;99.90;;;;;;5021516;28;20081;-73
2022/05/14 12:03:02;;;;;;;17.48;5.00;;;19.70;99.90;;;;;;5024315;28;20622;-73
2022/05/14 12:05:50;;;;;;;16.33;5.05;;;19.70;99.90;;;;;;5023253;28;20056;-73
2022/05/14 12:09:14;;;;;;;20.23;5.35;;;19.70;99.90;;;;;;5025680;28;20045;-73
2022/05/14 12:11:57;;;;;;;18.67;4.97;;;19.80;99.70;;;;;;4945381;29;20480;-73
2022/05/14 12:14:31;;;;;;;18.90;5.63;;;19.80;99.90;;;;;;4944970;29;20098;-73
2022/05/14 12:17:00;;;;;;;17.15;4.85;;;19.80;99.90;;;;;;4996492;28;20670;-73
2022/05/14 12:19:29;;;;;;;19.35;5.10;;;19.60;99.90;;;;;;5025564;28;20052;-73
2022/05/14 12:22:17;;;;;;;17.42;5.32;;;19.40;99.90;;;;;;5024251;28;20056;-73
2022/05/14 12:24:57;;;;;;;15.35;4.63;;;19.30;99.90;;;;;;5024311;28;20045;-74
2022/05/14 12:27:23;;;;;;;18.83;5.00;;;19.20;99.40;;;;;;5024633;28;20507;-73
2022/05/14 12:33:11;;;;;;;11.85;4.35;;;19.10;99.90;;;;;;5025348;28;20073;-73
2022/05/14 12:33:11;;;;;;;17.30;4.45;;;19.10;99.90;;;;;;5025154;28;20049;-73
2022/05/14 12:35:37;;;;;;;22.17;5.28;;;19.10;99.90;;;;;;5026336;28;20452;-74
2022/05/14 12:38:07;;;;;;;16.02;4.90;;;19.20;99.90;;;;;;5024093;28;20136;-74
2022/05/14 12:40:35;;;;;;;20.75;5.55;;;19.40;99.90;;;;;;5026159;28;20440;-73
2022/05/14 12:43:04;;;;;;;19.67;5.43;;;19.70;99.90;;;;;;5025103;28;20522;-74
2022/05/14 12:45:36;;;;;;;18.60;5.72;;;19.90;99.90;;;;;;5028191;28;20096;-74
2022/05/14 12:48:02;;;;;;;18.60;5.43;;;20.00;99.90;;;;;;5023813;28;20051;-74
2022/05/14 12:50:32;;;;;;;21.85;5.10;;;20.00;99.90;;;;;;5025365;28;20077;-74
2022/05/14 12:53:01;;;;;;;11.82;4.03;;;20.00;99.90;;;;;;5016939;28;20029;-74
2022/05/14 12:55:28;;;;;;;16.65;5.25;;;19.90;99.90;;;;;;5032421;28;20085;-73
2022/05/14 12:57:56;;;;;;;21.35;5.68;;;19.70;99.90;;;;;;5023509;28;20060;-73
2022/05/14 13:00:22;;;;;;;20.38;5.75;;;19.60;99.90;;;;;;5020411;28;20069;-73
2022/05/14 13:02:55;;;;;;;19.95;4.88;;;19.80;99.90;;;;;;5023031;28;20037;-73
2022/05/14 13:05:33;;;;;;;18.23;4.75;;;20.10;99.90;;;;;;5023142;28;20442;-73
2022/05/14 13:08:07;;;;;;;15.60;6.10;;;20.40;99.90;;;;;;5018954;28;20587;-73